Time;durP1;ratioP1;P1;durP2;ratioP2;P2;SDS_P1;SDS_P2;PMS_P1;PMS_P2;Temp;Humidity;BMP_temperature;BMP_pressure;BME280_temperature;BME280_humidity;BME280_pressure;Samples;Min_cycle;Max_cycle;Signal;HPM_P1;HPM_P2
2021/09/01 00:01:40;;;;;;;0.40;0.10;;;;;;;17.67;72.63;100061.34;112184;1199;95443;-73
2021/09/01 00:04:07;;;;;;;0.40;0.10;;;;;;;17.68;72.73;100063.63;113550;1199;93332;-74
2021/09/01 00:06:33;;;;;;;0.40;0.10;;;;;;;17.70;72.80;100068.13;113359;1200;138597;-74
2021/09/01 00:09:00;;;;;;;0.40;0.10;;;;;;;17.68;72.74;100066.13;112514;1199;95315;-73
2021/09/01 00:11:27;;;;;;;0.40;0.10;;;;;;;17.68;72.63;100066.11;112161;1206;138527;-74
2021/09/01 00:13:53;;;;;;;0.40;0.10;;;;;;;17.69;72.73;100066.41;112270;1199;95272;-73
2021/09/01 00:16:26;;;;;;;0.40;0.10;;;;;;;17.67;72.73;100064.61;112190;1199;108976;-74
2021/09/01 00:18:57;;;;;;;0.40;0.10;;;;;;;17.64;72.74;100063.55;112005;1206;138930;-73
2021/09/01 00:21:24;;;;;;;0.40;0.10;;;;;;;17.61;72.98;100067.30;112202;1199;93898;-75
2021/09/01 00:23:51;;;;;;;0.40;0.10;;;;;;;17.61;72.99;100062.83;112033;1200;138101;-73
2021/09/01 00:26:19;;;;;;;0.40;0.10;;;;;;;17.58;73.03;100067.27;112238;1199;95154;-74
2021/09/01 00:28:46;;;;;;;0.40;0.10;;;;;;;17.60;73.01;100066.61;112035;1202;96585;-74
2021/09/01 00:31:13;;;;;;;0.40;0.10;;;;;;;17.59;73.03;100065.23;112114;1199;139494;-74
2021/09/01 00:33:40;;;;;;;0.40;0.10;;;;;;;17.57;73.04;100066.46;112182;1199;93890;-74
2021/09/01 00:36:06;;;;;;;0.40;0.10;;;;;;;17.46;73.40;100067.29;112064;1200;138356;-74
2021/09/01 00:38:34;;;;;;;0.40;0.10;;;;;;;17.46;73.50;100068.18;112073;1202;94958;-74
2021/09/01 00:41:00;;;;;;;0.40;0.10;;;;;;;17.45;73.57;100072.21;112245;1200;95384;-75
2021/09/01 00:43:27;;;;;;;0.40;0.10;;;;;;;17.43;73.56;100075.04;113355;1201;138081;-74
2021/09/01 00:45:54;;;;;;;0.40;0.10;;;;;;;17.44;73.61;100078.00;113578;1200;93521;-74
2021/09/01 00:48:22;;;;;;;0.40;0.10;;;;;;;17.45;73.53;100081.39;113349;1199;138291;-74
2021/09/01 00:50:54;;;;;;;0.40;0.10;;;;;;;17.48;73.55;100083.14;113609;1199;93166;-75
2021/09/01 00:53:22;;;;;;;0.40;0.10;;;;;;;17.53;73.35;100085.52;113446;1200;138692;-75
2021/09/01 00:55:49;;;;;;;0.40;0.00;;;;;;;17.54;73.32;100087.95;112676;1199;94823;-75
2021/09/01 00:58:17;;;;;;;0.40;0.10;;;;;;;17.56;73.21;100084.96;112131;1199;95452;-74
2021/09/01 01:03:30;;;;;;;0.40;0.10;;;;;;;17.65;73.00;100088.42;112144;1199;94902;-77
2021/09/01 01:05:57;;;;;;;0.40;0.10;;;;;;;17.61;73.08;100090.80;111914;1200;137725;-76
2021/09/01 01:08:31;;;;;;;0.40;0.10;;;;;;;17.60;73.05;100093.73;112010;1203;94970;-77
2021/09/01 01:11:01;;;;;;;0.40;0.10;;;;;;;17.59;73.11;100095.98;112173;1199;109381;-79
2021/09/01 01:13:29;;;;;;;0.40;0.10;;;;;;;17.61;73.08;100099.96;111973;1202;139189;-77
2021/09/01 01:15:56;;;;;;;0.40;0.10;;;;;;;17.65;72.83;100098.96;112549;1199;94798;-77
2021/09/01 01:18:23;;;;;;;0.40;0.10;;;;;;;17.68;72.80;100101.11;113187;1199;138619;-77
2021/09/01 01:20:50;;;;;;;0.40;0.10;;;;;;;17.59;72.96;100102.92;112219;1199;95464;-77
2021/09/01 01:23:22;;;;;;;0.40;0.10;;;;;;;17.54;73.10;100104.67;112537;1199;137918;-78
2021/09/01 01:25:48;;;;;;;0.40;0.10;;;;;;;17.50;73.27;100103.84;112505;1199;94825;-78
2021/09/01 01:28:15;;;;;;;0.40;0.10;;;;;;;17.44;73.30;100109.02;112232;1199;94996;-78
2021/09/01 01:30:42;;;;;;;0.40;0.10;;;;;;;17.41;73.43;100109.05;112068;1206;139396;-78
2021/09/01 01:33:09;;;;;;;0.40;0.10;;;;;;;17.38;73.46;100107.23;112232;1199;95475;-77
2021/09/01 01:35:39;;;;;;;0.40;0.10;;;;;;;17.35;73.59;100106.71;112084;1199;138794;-77
2021/09/01 01:38:08;;;;;;;0.40;0.10;;;;;;;17.35;73.58;100109.76;112167;1200;108595;-79
2021/09/01 01:40:36;;;;;;;0.40;0.10;;;;;;;17.34;73.69;100111.61;112118;1200;109579;-78
2021/09/01 01:43:03;;;;;;;0.40;0.10;;;;;;;17.35;73.66;100112.45;112085;1200;138965;-80
2021/09/01 01:45:35;;;;;;;0.40;0.10;;;;;;;17.36;73.64;100111.33;112125;1206;94916;-78
2021/09/01 01:48:03;;;;;;;0.40;0.10;;;;;;;17.38;73.64;100111.88;113117;1200;138128;-76
2021/09/01 01:50:30;;;;;;;0.40;0.10;;;;;;;17.41;73.39;100109.73;112407;1200;109561;-77
2021/09/01 01:52:57;;;;;;;0.40;0.10;;;;;;;17.40;73.32;100116.30;112206;1206;94852;-76
2021/09/01 01:55:24;;;;;;;0.40;0.10;;;;;;;17.35;73.45;100115.30;111971;1202;138727;-76
2021/09/01 01:57:51;;;;;;;0.40;0.10;;;;;;;17.37;73.42;100118.25;112194;1200;95369;-77
2021/09/01 02:00:17;;;;;;;0.40;0.10;;;;;;;17.41;73.31;100115.87;112037;1206;139823;-78
2021/09/01 02:02:44;;;;;;;0.40;0.10;;;;;;;17.40;73.18;100114.49;112178;1199;95015;-78
2021/09/01 02:05:11;;;;;;;0.40;0.10;;;;;;;17.38;73.19;100118.92;112010;1200;139472;-76
2021/09/01 02:07:38;;;;;;;0.40;0.10;;;;;;;17.37;73.26;100119.88;112186;1199;95187;-77
2021/09/01 02:10:06;;;;;;;0.40;0.10;;;;;;;17.38;73.23;100122.31;112099;1206;95482;-76
2021/09/01 02:12:33;;;;;;;0.40;0.10;;;;;;;17.36;73.19;100119.24;112703;1199;138206;-77
2021/09/01 02:15:00;;;;;;;0.40;0.10;;;;;;;17.32;73.27;100123.77;112056;1199;94859;-76
2021/09/01 02:17:28;;;;;;;0.40;0.10;;;;;;;17.33;73.16;100125.30;112067;1199;138282;-76
2021/09/01 02:19:55;;;;;;;0.40;0.10;;;;;;;17.36;73.17;100126.18;112040;1201;94910;-77
2021/09/01 02:22:22;;;;;;;0.40;0.10;;;;;;;17.30;73.15;100129.25;112185;1200;95307;-76
2021/09/01 02:24:49;;;;;;;0.40;0.10;;;;;;;17.21;73.38;100126.17;112006;1202;138183;-78
2021/09/01 02:27:16;;;;;;;0.40;0.10;;;;;;;17.18;73.51;100127.41;112184;1199;94863;-76
2021/09/01 02:29:43;;;;;;;0.40;0.10;;;;;;;17.18;73.68;100128.34;112038;1199;139363;-76
2021/09/01 02:32:09;;;;;;;0.40;0.10;;;;;;;17.25;73.58;100133.50;112261;1199;94959;-77
2021/09/01 02:34:37;;;;;;;0.40;0.10;;;;;;;17.28;73.35;100134.06;112104;1199;108494;-76
2021/09/01 02:37:04;;;;;;;0.40;0.10;;;;;;;17.27;73.37;100136.45;112058;1199;138797;-76
2021/09/01 02:39:30;;;;;;;0.40;0.10;;;;;;;17.27;73.28;100138.22;112201;1200;94843;-76
2021/09/01 02:41:57;;;;;;;0.40;0.10;;;;;;;17.17;73.46;100139.00;112118;1199;137915;-77
2021/09/01 02:44:24;;;;;;;0.40;0.10;;;;;;;17.15;73.61;100136.77;112191;1206;94812;-77
2021/09/01 02:46:50;;;;;;;0.40;0.10;;;;;;;17.17;73.72;100136.67;112249;1206;95285;-76
2021/09/01 02:49:17;;;;;;;0.40;0.10;;;;;;;17.13;73.75;100138.15;112055;1199;139535;-77
2021/09/01 02:51:44;;;;;;;0.40;0.10;;;;;;;17.09;73.73;100139.96;112206;1206;95057;-76
2021/09/01 02:54:10;;;;;;;0.40;0.10;;;;;;;17.08;73.87;100146.30;112060;1206;139558;-77
2021/09/01 02:56:37;;;;;;;0.40;0.10;;;;;;;17.04;73.96;100149.94;112210;1206;96039;-76
2021/09/01 02:59:03;;;;;;;0.40;0.10;;;;;;;17.00;74.13;100151.09;112187;1199;94900;-77
2021/09/01 03:01:30;;;;;;;0.40;0.10;;;;;;;16.98;74.22;100148.52;113466;1199;138296;-77
2021/09/01 03:03:57;;;;;;;0.40;0.10;;;;;;;16.98;74.10;100153.67;112528;1199;94794;-76
2021/09/01 03:06:23;;;;;;;0.40;0.10;;;;;;;17.00;74.10;100156.65;112073;1206;139818;-76
2021/09/01 03:08:50;;;;;;;0.40;0.10;;;;;;;17.02;73.98;100158.31;112201;1203;95714;-76
2021/09/01 03:11:17;;;;;;;0.40;0.10;;;;;;;17.00;74.04;100158.23;112199;1206;139761;-77
2021/09/01 03:13:43;;;;;;;0.40;0.10;;;;;;;16.95;74.17;100161.95;112121;1202;94882;-76
2021/09/01 03:16:10;;;;;;;0.40;0.10;;;;;;;16.93;74.31;100161.71;112212;1199;94948;-77
2021/09/01 03:18:37;;;;;;;0.40;0.10;;;;;;;16.95;74.12;100166.80;112094;1206;139176;-77
2021/09/01 03:21:03;;;;;;;0.40;0.10;;;;;;;17.00;74.16;100164.53;112272;1199;94824;-77
2021/09/01 03:23:30;;;;;;;0.40;0.10;;;;;;;17.01;73.93;100163.58;112188;1199;139393;-77
2021/09/01 03:25:56;;;;;;;0.40;0.10;;;;;;;17.01;73.89;100166.58;112287;1199;94845;-76
2021/09/01 03:28:23;;;;;;;0.40;0.10;;;;;;;16.98;73.88;100170.52;112171;1199;94889;-77
2021/09/01 03:30:50;;;;;;;0.40;0.10;;;;;;;16.97;73.79;100177.45;112040;1206;138878;-75
2021/09/01 03:33:16;;;;;;;0.40;0.10;;;;;;;16.98;73.75;100181.33;112229;1199;94815;-76
2021/09/01 03:35:43;;;;;;;0.40;0.10;;;;;;;17.02;73.80;100186.63;112188;1199;140583;-77
2021/09/01 03:38:09;;;;;;;0.40;0.10;;;;;;;17.04;73.61;100185.42;112246;1199;95339;-76
2021/09/01 03:40:36;;;;;;;0.40;0.10;;;;;;;16.98;73.61;100191.19;112183;1200;94853;-76
2021/09/01 03:43:03;;;;;;;0.40;0.10;;;;;;;16.95;73.77;100193.86;112154;1200;138494;-76
2021/09/01 03:45:29;;;;;;;0.40;0.10;;;;;;;16.93;73.87;100197.56;112267;1198;94848;-77
2021/09/01 03:47:56;;;;;;;0.40;0.10;;;;;;;16.92;73.92;100200.31;112213;1199;138699;-78
2021/09/01 03:50:23;;;;;;;0.40;0.10;;;;;;;16.86;73.97;100203.28;112293;1199;94923;-76
2021/09/01 03:52:49;;;;;;;0.40;0.10;;;;;;;16.85;74.12;100201.52;112175;1200;94796;-77
2021/09/01 03:55:16;;;;;;;0.40;0.10;;;;;;;16.87;74.03;100202.11;112139;1199;138243;-76
2021/09/01 03:57:43;;;;;;;0.40;0.10;;;;;;;16.89;73.99;100207.44;112301;1199;94893;-77
2021/09/01 04:00:10;;;;;;;0.40;0.10;;;;;;;16.91;73.88;100204.48;112222;1199;138185;-77
2021/09/01 04:02:37;;;;;;;0.40;0.10;;;;;;;16.87;73.96;100209.30;113708;1198;93144;-78
2021/09/01 04:05:04;;;;;;;0.40;0.10;;;;;;;16.87;74.00;100209.34;112685;1199;94922;-76
2021/09/01 04:07:31;;;;;;;0.40;0.10;;;;;;;16.89;73.88;100209.96;112202;1206;137908;-77
2021/09/01 04:09:58;;;;;;;0.40;0.10;;;;;;;16.92;73.84;100216.28;112265;1206;94787;-77
2021/09/01 04:12:24;;;;;;;0.40;0.10;;;;;;;16.92;73.91;100220.55;112226;1206;139773;-76
2021/09/01 04:14:51;;;;;;;0.40;0.10;;;;;;;16.92;73.79;100222.02;112346;1199;94890;-77
2021/09/01 04:17:18;;;;;;;0.40;0.10;;;;;;;16.86;73.80;100225.88;112209;1206;138556;-77
2021/09/01 04:19:44;;;;;;;0.40;0.10;;;;;;;16.85;73.88;100233.48;112188;1200;95506;-78
2021/09/01 04:22:11;;;;;;;0.40;0.10;;;;;;;16.79;73.94;100235.60;112304;1199;94915;-77
2021/09/01 04:24:37;;;;;;;0.40;0.10;;;;;;;16.73;74.15;100238.64;112167;1206;138093;-76
2021/09/01 04:27:04;;;;;;;0.40;0.10;;;;;;;16.71;74.22;100244.61;112310;1200;94808;-76
2021/09/01 04:29:31;;;;;;;0.40;0.10;;;;;;;16.69;74.25;100246.75;112044;1200;141804;-77
2021/09/01 04:31:58;;;;;;;0.40;0.10;;;;;;;16.66;74.29;100249.52;112250;1199;94862;-77
2021/09/01 04:34:24;;;;;;;0.40;0.10;;;;;;;16.65;74.37;100250.33;112260;1200;94908;-77
2021/09/01 04:36:51;;;;;;;0.40;0.10;;;;;;;16.65;74.17;100254.08;112181;1198;139122;-76
2021/09/01 04:39:17;;;;;;;0.40;0.10;;;;;;;16.66;74.36;100252.83;112270;1198;94963;-76
2021/09/01 04:41:47;;;;;;;0.40;0.10;;;;;;;16.67;74.32;100253.84;112059;1206;140166;-77
2021/09/01 04:44:14;;;;;;;0.40;0.10;;;;;;;16.69;74.21;100255.11;112161;1199;94823;-77
2021/09/01 04:46:40;;;;;;;0.40;0.10;;;;;;;16.71;74.23;100256.80;112263;1206;95166;-78
2021/09/01 04:49:07;;;;;;;0.40;0.10;;;;;;;16.68;74.28;100258.02;112039;1199;137747;-76
2021/09/01 04:51:34;;;;;;;0.40;0.10;;;;;;;16.64;74.32;100265.83;112142;1200;94830;-76
2021/09/01 04:54:00;;;;;;;0.40;0.10;;;;;;;16.63;74.50;100270.91;112160;1199;140710;-77
2021/09/01 04:56:27;;;;;;;0.40;0.10;;;;;;;16.64;74.30;100272.45;112177;1200;94911;-78
2021/09/01 04:58:53;;;;;;;0.40;0.10;;;;;;;16.67;74.40;100273.91;112112;1206;95352;-76
2021/09/01 05:01:20;;;;;;;0.40;0.10;;;;;;;16.71;74.18;100272.23;112125;1198;138179;-77
2021/09/01 05:03:47;;;;;;;0.40;0.10;;;;;;;16.76;74.09;100274.14;112206;1200;95400;-77
2021/09/01 05:06:14;;;;;;;0.40;0.10;;;;;;;16.74;73.87;100276.58;112272;1206;139377;-79
2021/09/01 05:08:40;;;;;;;0.40;0.10;;;;;;;16.71;73.87;100284.07;112224;1201;108545;-77
2021/09/01 05:11:07;;;;;;;0.40;0.10;;;;;;;16.66;74.13;100285.60;112280;1199;94834;-78
2021/09/01 05:13:36;;;;;;;0.40;0.10;;;;;;;16.64;74.27;100283.36;112100;1201;137700;-78
2021/09/01 05:16:03;;;;;;;0.40;0.10;;;;;;;16.64;74.26;100284.11;112435;1199;96196;-77
2021/09/01 05:18:30;;;;;;;0.40;0.10;;;;;;;16.63;74.29;100287.02;112143;1199;138569;-78
2021/09/01 05:20:59;;;;;;;0.40;0.10;;;;;;;16.63;74.24;100284.70;112321;1206;96578;-77
2021/09/01 05:23:35;;;;;;;0.40;0.10;;;;;;;16.64;74.25;100288.19;112310;1200;138681;-79
2021/09/01 05:26:05;;;;;;;0.40;0.10;;;;;;;16.67;74.31;100288.41;112253;1200;95285;-77
2021/09/01 05:28:35;;;;;;;0.40;0.10;;;;;;;16.66;74.22;100285.61;112693;1199;109026;-79
2021/09/01 05:31:04;;;;;;;0.40;0.10;;;;;;;16.67;74.33;100286.81;112236;1206;138356;-78
2021/09/01 05:33:33;;;;;;;0.40;0.10;;;;;;;16.70;74.28;100290.20;112259;1200;94914;-79
2021/09/01 05:35:59;;;;;;;0.40;0.10;;;;;;;16.71;74.07;100293.05;112150;1200;138431;-79
2021/09/01 05:38:26;;;;;;;0.40;0.10;;;;;;;16.64;74.32;100296.27;112163;1200;94871;-79
2021/09/01 05:40:53;;;;;;;0.40;0.10;;;;;;;16.60;74.53;100295.98;112217;1200;94947;-78
2021/09/01 05:43:21;;;;;;;0.40;0.10;;;;;;;16.62;74.61;100301.21;112142;1200;138243;-79
2021/09/01 05:45:49;;;;;;;0.40;0.10;;;;;;;16.62;74.55;100304.60;112322;1206;94865;-79
2021/09/01 05:48:19;;;;;;;0.40;0.10;;;;;;;16.64;74.55;100309.39;112737;1199;137107;-78
2021/09/01 05:50:51;;;;;;;0.40;0.10;;;;;;;16.69;74.64;100312.50;112368;1199;110669;-81
2021/09/01 05:53:18;;;;;;;0.40;0.10;;;;;;;16.72;74.39;100316.48;112483;1199;138889;-77
2021/09/01 05:55:48;;;;;;;0.40;0.10;;;;;;;16.73;74.40;100321.09;112281;1206;94809;-80
2021/09/01 05:58:17;;;;;;;0.40;0.10;;;;;;;16.77;74.31;100323.54;112183;1199;108738;-78
2021/09/01 06:00:44;;;;;;;0.40;0.10;;;;;;;16.79;74.32;100326.89;112100;1199;138241;-78
2021/09/01 06:03:11;;;;;;;0.40;0.10;;;;;;;16.84;74.17;100327.68;112128;1200;94905;-78
2021/09/01 06:05:38;;;;;;;0.40;0.10;;;;;;;16.90;74.08;100330.78;112140;1200;138226;-80
2021/09/01 06:08:07;;;;;;;0.40;0.10;;;;;;;16.87;73.82;100332.48;112252;1206;94910;-79
2021/09/01 06:10:37;;;;;;;0.40;0.10;;;;;;;16.85;73.81;100334.59;113207;1199;109480;-80
2021/09/01 06:13:04;;;;;;;0.40;0.10;;;;;;;16.77;73.79;100338.98;112468;1200;138437;-78
2021/09/01 06:15:32;;;;;;;0.40;0.10;;;;;;;16.73;74.04;100335.77;112169;1200;95696;-79
2021/09/01 06:18:00;;;;;;;0.40;0.10;;;;;;;16.72;73.95;100331.67;112097;1200;138624;-78
2021/09/01 06:20:28;;;;;;;0.40;0.10;;;;;;;16.72;73.96;100332.96;112281;1200;110563;-79
2021/09/01 06:22:55;;;;;;;0.40;0.10;;;;;;;16.71;74.03;100332.11;112701;1200;94801;-78
2021/09/01 06:25:22;;;;;;;0.40;0.10;;;;;;;16.76;74.04;100340.45;112525;1199;137790;-78
2021/09/01 06:27:49;;;;;;;0.40;0.10;;;;;;;16.80;73.93;100344.94;112205;1200;94826;-79
2021/09/01 06:30:16;;;;;;;0.40;0.10;;;;;;;16.79;73.65;100349.63;112123;1206;138350;-78
2021/09/01 06:32:42;;;;;;;0.40;0.10;;;;;;;16.80;73.73;100349.38;112337;1199;94898;-77
2021/09/01 06:35:11;;;;;;;0.40;0.10;;;;;;;16.80;73.53;100354.58;112152;1200;95320;-79
2021/09/01 06:37:39;;;;;;;0.40;0.10;;;;;;;16.82;73.52;100356.80;112244;1200;139402;-78
2021/09/01 06:40:07;;;;;;;0.40;0.10;;;;;;;16.82;73.23;100362.20;112675;1200;94854;-77
2021/09/01 06:42:34;;;;;;;0.40;0.10;;;;;;;16.79;73.29;100361.11;112497;1198;136808;-78
2021/09/01 06:45:01;;;;;;;0.40;0.10;;;;;;;16.79;73.24;100366.50;112275;1199;94919;-79
2021/09/01 06:47:47;;;;;;;0.40;0.10;;;;;;;16.82;73.24;100367.75;112003;1199;139784;-77
2021/09/01 06:50:16;;;;;;;0.40;0.10;;;;;;;16.85;73.11;100369.02;112098;1206;109570;-76
2021/09/01 06:52:44;;;;;;;0.40;0.10;;;;;;;16.94;72.98;100370.92;112144;1200;94962;-78
2021/09/01 06:55:12;;;;;;;0.40;0.10;;;;;;;16.99;72.69;100373.55;112056;1200;137973;-77
2021/09/01 06:57:39;;;;;;;0.40;0.10;;;;;;;17.00;72.61;100371.85;113105;1199;108440;-77
2021/09/01 07:00:09;;;;;;;0.40;0.10;;;;;;;17.09;72.54;100378.39;112031;1200;138575;-78
2021/09/01 07:02:35;;;;;;;0.40;0.10;;;;;;;17.20;72.50;100377.23;112481;1200;94846;-77
2021/09/01 07:05:03;;;;;;;0.40;0.10;;;;;;;17.34;72.36;100376.86;112199;1200;95036;-78
2021/09/01 07:07:36;;;;;;;0.40;0.10;;;;;;;17.48;72.29;100374.27;112251;1200;138442;-77
2021/09/01 07:10:03;;;;;;;0.40;0.10;;;;;;;17.56;72.04;100383.37;112119;1206;94907;-78
2021/09/01 07:12:30;;;;;;;0.40;0.10;;;;;;;17.62;71.51;100386.10;112112;1200;138025;-78
2021/09/01 07:14:56;;;;;;;0.40;0.10;;;;;;;17.63;71.41;100390.52;112145;1200;95441;-79
2021/09/01 07:17:23;;;;;;;0.40;0.10;;;;;;;17.62;71.42;100396.14;112199;1206;139776;-78
2021/09/01 07:19:50;;;;;;;0.40;0.10;;;;;;;17.65;71.26;100402.80;112345;1201;94817;-77
2021/09/01 07:22:17;;;;;;;0.40;0.10;;;;;;;17.62;70.56;100404.21;112247;1200;109526;-78
2021/09/01 07:24:43;;;;;;;0.40;0.10;;;;;;;17.61;71.05;100410.35;112102;1198;138091;-78
2021/09/01 07:27:10;;;;;;;0.40;0.10;;;;;;;17.64;71.05;100409.67;112245;1200;95333;-77
2021/09/01 07:29:37;;;;;;;0.40;0.10;;;;;;;17.64;71.05;100417.94;112114;1201;138474;-78
2021/09/01 07:32:03;;;;;;;0.40;0.10;;;;;;;17.72;70.97;100419.27;112207;1202;94817;-77
2021/09/01 07:34:30;;;;;;;0.40;0.10;;;;;;;17.79;70.63;100419.46;112266;1200;110519;-79
2021/09/01 07:36:57;;;;;;;0.40;0.10;;;;;;;17.79;70.54;100421.05;112260;1206;138221;-78
2021/09/01 07:39:24;;;;;;;0.40;0.10;;;;;;;17.91;70.89;100421.29;112262;1200;94940;-76
2021/09/01 07:41:51;;;;;;;0.40;0.10;;;;;;;18.12;70.86;100417.80;112124;1200;139189;-79
2021/09/01 07:44:17;;;;;;;0.40;0.10;;;;;;;18.26;69.72;100414.65;112181;1206;95345;-77
2021/09/01 07:46:45;;;;;;;0.40;0.00;;;;;;;18.36;69.17;100412.09;112377;1199;95344;-78
2021/09/01 07:49:12;;;;;;;0.40;0.10;;;;;;;18.49;69.09;100416.89;112175;1199;138818;-77
2021/09/01 07:51:38;;;;;;;0.40;0.10;;;;;;;18.63;68.59;100416.41;112357;1206;94907;-77
2021/09/01 07:54:05;;;;;;;0.40;0.10;;;;;;;18.71;67.08;100417.21;112181;1201;138997;-79
2021/09/01 07:56:32;;;;;;;0.40;0.10;;;;;;;18.78;67.17;100414.78;112277;1199;94961;-78
2021/09/01 07:58:58;;;;;;;0.40;0.10;;;;;;;18.85;66.53;100420.71;112382;1198;94913;-80
2021/09/01 08:01:25;;;;;;;0.40;0.10;;;;;;;18.81;66.17;100421.45;112220;1201;136412;-75
2021/09/01 08:03:52;;;;;;;0.40;0.10;;;;;;;18.83;65.00;100422.44;112317;1200;94806;-77
2021/09/01 08:06:18;;;;;;;0.40;0.10;;;;;;;18.91;65.35;100416.92;112171;1206;137960;-79
2021/09/01 08:08:46;;;;;;;0.40;0.10;;;;;;;18.99;64.96;100420.58;112241;1200;94881;-78
2021/09/01 08:11:13;;;;;;;0.40;0.10;;;;;;;19.07;65.27;100425.90;112331;1199;94793;-78
2021/09/01 08:13:40;;;;;;;0.40;0.10;;;;;;;19.05;64.50;100427.98;112183;1200;138986;-77
2021/09/01 08:16:08;;;;;;;0.40;0.10;;;;;;;19.01;63.99;100434.71;112213;1200;94822;-76
2021/09/01 08:18:34;;;;;;;0.40;0.00;;;;;;;19.00;63.26;100439.77;112205;1199;137837;-77
2021/09/01 08:21:01;;;;;;;0.40;0.10;;;;;;;19.02;63.30;100436.78;112291;1202;94873;-77
2021/09/01 08:23:28;;;;;;;0.40;0.10;;;;;;;19.10;62.98;100435.05;112283;1202;138125;-77
2021/09/01 08:25:54;;;;;;;0.40;0.10;;;;;;;19.25;63.53;100434.48;112289;1206;94918;-78
2021/09/01 08:28:21;;;;;;;0.40;0.10;;;;;;;19.38;62.83;100437.12;112289;1200;94875;-79
2021/09/01 08:30:48;;;;;;;0.40;0.10;;;;;;;19.35;62.26;100442.31;112176;1200;138673;-77
2021/09/01 08:33:14;;;;;;;0.40;0.10;;;;;;;19.29;62.55;100448.28;112264;1207;95351;-78
2021/09/01 08:35:41;;;;;;;0.40;0.10;;;;;;;19.27;62.44;100457.59;112172;1206;137596;-79
2021/09/01 08:38:08;;;;;;;0.40;0.10;;;;;;;19.10;61.30;100455.56;112279;1201;94812;-76
2021/09/01 08:40:34;;;;;;;0.40;0.10;;;;;;;18.91;61.63;100458.50;112342;1204;95338;-77
2021/09/01 08:43:01;;;;;;;0.40;0.10;;;;;;;18.77;62.01;100463.45;112122;1201;138644;-77
2021/09/01 08:45:28;;;;;;;0.40;0.10;;;;;;;18.69;62.06;100468.77;112229;1203;94910;-77
2021/09/01 08:47:55;;;;;;;0.40;0.10;;;;;;;18.65;62.64;100475.70;112179;1202;138564;-77
2021/09/01 08:50:29;;;;;;;0.40;0.10;;;;;;;18.64;62.76;100480.77;112211;1200;95013;-79
2021/09/01 08:52:56;;;;;;;0.40;0.10;;;;;;;18.62;62.14;100480.52;112311;1206;109229;-77
2021/09/01 08:55:26;;;;;;;0.40;0.10;;;;;;;18.58;61.79;100486.67;112331;1200;138445;-78
2021/09/01 08:57:52;;;;;;;0.40;0.10;;;;;;;18.60;61.86;100487.80;112386;1201;93884;-77
2021/09/01 09:00:19;;;;;;;0.40;0.10;;;;;;;18.69;62.58;100486.37;112142;1206;137322;-78
2021/09/01 09:02:53;;;;;;;0.40;0.10;;;;;;;18.68;60.72;100484.45;112328;1198;94915;-77
2021/09/01 09:05:29;;;;;;;0.40;0.10;;;;;;;18.63;61.15;100487.50;112197;1207;137711;-77
2021/09/01 09:07:56;;;;;;;0.40;0.00;;;;;;;18.78;60.89;100489.83;112356;1200;94857;-77
2021/09/01 09:10:31;;;;;;;0.40;0.10;;;;;;;18.98;59.59;100484.73;112239;1206;94819;-79
2021/09/01 09:13:03;;;;;;;0.40;0.10;;;;;;;19.26;57.97;100486.77;112254;1198;137304;-77
2021/09/01 09:15:30;;;;;;;0.40;0.10;;;;;;;19.67;57.56;100481.57;112198;1206;94854;-80
2021/09/01 09:18:00;;;;;;;0.40;0.10;;;;;;;20.34;54.71;100489.04;112465;1199;138244;-78
2021/09/01 09:20:32;;;;;;;0.40;0.10;;;;;;;21.25;51.62;100482.95;112191;1202;108636;-79
2021/09/01 09:23:04;;;;;;;0.40;0.00;;;;;;;22.58;47.86;100483.13;112366;1206;108486;-78
2021/09/01 09:25:32;;;;;;;0.40;0.10;;;;;;;24.32;45.91;100486.70;112218;1206;138937;-81
2021/09/01 09:28:02;;;;;;;0.40;0.00;;;;;;;25.84;42.22;100482.45;112240;1199;94917;-80
2021/09/01 09:30:40;;;;;;;0.40;0.00;;;;;;;27.06;40.11;100482.85;112410;1200;139439;-81
2021/09/01 09:33:22;;;;;;;0.40;0.00;;;;;;;26.97;40.10;100478.98;112182;1202;108839;-79
2021/09/01 09:36:02;;;;;;;0.40;0.00;;;;;;;27.57;39.17;100484.63;112160;1207;138647;-79
2021/09/01 09:38:32;;;;;;;0.40;0.00;;;;;;;26.60;40.35;100485.99;112268;1200;95169;-79
2021/09/01 09:41:00;;;;;;;0.40;0.00;;;;;;;25.58;41.60;100495.73;112344;1206;109117;-81
2021/09/01 09:43:28;;;;;;;0.40;0.00;;;;;;;25.55;41.52;100500.65;112246;1199;137636;-79
2021/09/01 09:46:03;;;;;;;0.40;0.00;;;;;;;26.23;40.01;100497.98;112380;1207;94895;-79
2021/09/01 09:48:35;;;;;;;0.40;0.00;;;;;;;25.97;41.00;100499.17;112381;1201;137400;-82
2021/09/01 09:51:08;;;;;;;0.40;0.00;;;;;;;26.35;40.84;100499.81;112420;1201;110000;-79
2021/09/01 09:53:39;;;;;;;0.40;0.00;;;;;;;27.61;38.19;100496.84;112355;1200;137809;-80
2021/09/01 09:56:12;;;;;;;0.40;0.00;;;;;;;28.59;36.99;100498.33;112569;1206;94845;-78
2021/09/01 09:58:49;;;;;;;0.40;0.00;;;;;;;29.07;35.46;100497.42;112312;1199;96846;-80
2021/09/01 10:01:17;;;;;;;0.40;0.00;;;;;;;29.97;35.22;100487.31;112280;1207;136877;-78
2021/09/01 10:03:46;;;;;;;0.40;0.00;;;;;;;30.37;33.52;100491.13;112351;1201;101526;-79
2021/09/01 10:06:16;;;;;;;0.40;0.00;;;;;;;30.52;32.79;100497.45;113043;1203;136642;-78
2021/09/01 10:08:44;;;;;;;0.40;0.00;;;;;;;30.17;32.84;100498.96;112456;1198;94851;-80
2021/09/01 10:11:13;;;;;;;0.40;0.00;;;;;;;29.38;34.15;100507.99;112568;1198;99885;-79
2021/09/01 10:13:46;;;;;;;0.40;0.00;;;;;;;29.65;33.91;100507.25;112627;1201;137206;-78
2021/09/01 10:16:22;;;;;;;0.40;0.00;;;;;;;29.18;34.27;100511.69;112501;1199;94814;-80
2021/09/01 10:19:09;;;;;;;0.40;0.00;;;;;;;30.21;33.13;100506.30;112278;1202;139946;-80
2021/09/01 10:21:39;;;;;;;0.40;0.00;;;;;;;31.14;32.13;100504.73;112425;1198;100056;-81
2021/09/01 10:24:20;;;;;;;0.40;0.00;;;;;;;31.61;30.98;100501.55;112393;1203;138372;-80
2021/09/01 10:27:19;;;;;;;0.40;0.00;;;;;;;31.59;30.41;100501.77;112362;1206;93866;-78
2021/09/01 10:29:50;;;;;;;0.40;0.00;;;;;;;31.11;30.38;100509.88;112319;1207;137654;-78
2021/09/01 10:32:17;;;;;;;0.40;0.00;;;;;;;31.66;29.63;100509.56;112312;1199;108722;-81
2021/09/01 10:34:44;;;;;;;0.40;0.00;;;;;;;32.36;27.81;100510.90;112411;1204;94939;-78
2021/09/01 10:37:38;;;;;;;0.40;0.00;;;;;;;33.01;27.42;100512.08;112194;1199;138985;-78
2021/09/01 10:40:35;;;;;;;0.40;0.00;;;;;;;32.94;26.82;100508.85;112434;1206;94836;-77
2021/09/01 10:43:19;;;;;;;0.40;0.00;;;;;;;31.30;28.57;100507.13;112032;1202;137565;-79
2021/09/01 10:45:52;;;;;;;0.40;0.00;;;;;;;29.63;31.43;100511.64;112293;1203;101014;-78
2021/09/01 10:48:20;;;;;;;0.40;0.00;;;;;;;28.14;33.66;100525.10;112247;1199;138844;-82
2021/09/01 10:50:51;;;;;;;0.40;0.00;;;;;;;26.88;34.94;100532.30;112253;1202;94804;-79
2021/09/01 10:53:26;;;;;;;0.40;0.00;;;;;;;25.92;36.58;100530.77;112259;1201;108510;-79
2021/09/01 10:56:00;;;;;;;0.40;0.00;;;;;;;25.41;38.16;100533.19;112138;1208;137800;-79
2021/09/01 10:58:39;;;;;;;0.40;0.00;;;;;;;25.06;39.75;100534.88;112147;1202;94905;-79
2021/09/01 11:01:13;;;;;;;0.40;0.00;;;;;;;24.89;41.34;100528.10;112136;1206;137861;-79
2021/09/01 11:03:42;;;;;;;0.40;0.00;;;;;;;24.80;42.03;100527.48;112393;1200;108793;-79
2021/09/01 11:06:13;;;;;;;0.40;0.00;;;;;;;24.75;42.20;100532.08;112141;1198;137949;-79
2021/09/01 11:08:57;;;;;;;0.40;0.00;;;;;;;24.56;43.15;100526.48;112230;1203;95364;-79
2021/09/01 11:11:37;;;;;;;0.40;0.00;;;;;;;24.37;43.02;100532.04;112402;1198;95386;-80
2021/09/01 11:14:04;;;;;;;0.40;0.00;;;;;;;24.08;42.11;100525.03;112287;1198;138963;-82
2021/09/01 11:16:31;;;;;;;0.40;0.00;;;;;;;23.78;42.51;100529.88;112329;1199;94822;-82
2021/09/01 11:19:24;;;;;;;0.40;0.00;;;;;;;23.50;43.47;100529.71;112272;1204;138637;-79
2021/09/01 11:21:51;;;;;;;0.40;0.00;;;;;;;23.30;43.87;100529.52;112214;1199;94788;-78